Galena, Missouri
Current Conditions -  °F | °C
As of 7:35 PM on Monday 20 Oct 2014 (Local Time) from KFWB Reporting Station
Clear Clear  
Wind Chill: 17°   Ceiling: Unl
Heat Index: 17°   Visibility: 10mi
Dew Point: 15°   Wind: 0mph
Humidity: 88%   Direction: NA
Pressure: 30.05"   Gusts: NA
Location:  36.81°N, 93.47°W
Report Text: KFWB 210035Z AUTO 00000KT 10SM CLR 17/15 A3005 RMK AO2
Loading
Personal Weather Stations






























Interactive Weather Map
Tropical Storm Tracking
New forecast layout! Learn more

10-Day Weather Forecast

Advertisements
Track Severe Weather on mobile